Time;durP1;ratioP1;P1;durP2;ratioP2;P2;SDS_P1;SDS_P2;PMS_P1;PMS_P2;Temp;Humidity;BMP_temperature;BMP_pressure;BME280_temperature;BME280_humidity;BME280_pressure;Samples;Min_cycle;Max_cycle;Signal;HPM_P1;HPM_P2
2022/05/29 00:02:10;;;;;;;7.88;2.83;;;;;;;;;;4994981;28;20058;-63
2022/05/29 00:04:40;;;;;;;7.63;2.78;;;;;;;;;;4994509;28;20042;-63
2022/05/29 00:07:12;;;;;;;9.00;2.88;;;;;;;;;;4994639;28;20509;-63
2022/05/29 00:09:47;;;;;;;4.35;2.60;;;;;;;;;;4977674;28;20050;-63
2022/05/29 00:12:18;;;;;;;7.45;3.10;;;;;;;;;;4994703;28;20050;-63
2022/05/29 00:14:49;;;;;;;3.70;2.53;;;;;;;;;;4994098;28;20050;-63
2022/05/29 00:17:20;;;;;;;9.85;3.30;;;;;;;;;;4994572;28;20066;-60
2022/05/29 00:19:50;;;;;;;11.25;3.53;;;;;;;;;;4994408;28;20050;-62
2022/05/29 00:22:21;;;;;;;8.40;3.75;;;;;;;;;;4994483;28;20379;-62
2022/05/29 00:24:51;;;;;;;7.63;2.83;;;;;;;;;;4994625;28;20062;-63
2022/05/29 00:27:23;;;;;;;9.05;2.45;;;;;;;;;;4994236;28;20050;-62
2022/05/29 00:29:53;;;;;;;10.68;3.22;;;;;;;;;;4977344;28;20046;-62
2022/05/29 00:32:23;;;;;;;5.90;3.75;;;;;;;;;;4993064;28;20050;-62
2022/05/29 00:34:53;;;;;;;5.07;3.33;;;;;;;;;;4995019;28;20054;-61
2022/05/29 00:37:25;;;;;;;8.50;3.00;;;;;;;;;;4994134;28;20057;-62
2022/05/29 00:39:54;;;;;;;8.27;2.60;;;;;;;;;;4993959;28;20042;-62
2022/05/29 00:42:25;;;;;;;12.07;4.97;;;;;;;;;;4994184;28;20500;-63
2022/05/29 00:44:55;;;;;;;9.73;2.63;;;;;;;;;;4993929;28;20061;-63
2022/05/29 00:47:27;;;;;;;6.20;2.65;;;;;;;;;;4994175;28;20043;-63
2022/05/29 00:49:58;;;;;;;8.82;2.65;;;;;;;;;;4994031;28;20503;-63
2022/05/29 00:52:29;;;;;;;2.92;2.20;;;;;;;;;;4994440;28;20050;-63
2022/05/29 00:55:02;;;;;;;5.28;2.80;;;;;;;;;;4993832;28;20046;-63
2022/05/29 00:57:40;;;;;;;4.38;2.20;;;;;;;;;;4977460;28;20046;-63
2022/05/29 01:00:26;;;;;;;4.28;2.33;;;;;;;;;;4993749;28;20448;-63
2022/05/29 01:02:59;;;;;;;3.08;2.30;;;;;;;;;;4992456;28;20516;-63
2022/05/29 01:05:30;;;;;;;7.15;2.88;;;;;;;;;;4993848;28;20145;-63
2022/05/29 01:08:23;;;;;;;6.55;3.63;;;;;;;;;;4994318;28;20054;-62
2022/05/29 01:11:06;;;;;;;3.42;2.28;;;;;;;;;;4990948;28;20050;-63
2022/05/29 01:13:48;;;;;;;2.33;1.98;;;;;;;;;;4977003;28;20054;-63
2022/05/29 01:16:36;;;;;;;6.68;2.28;;;;;;;;;;4993710;28;20082;-63
2022/05/29 01:19:35;;;;;;;5.18;2.65;;;;;;;;;;4993729;28;20145;-62
2022/05/29 01:22:22;;;;;;;6.00;2.20;;;;;;;;;;4993554;28;20399;-63
2022/05/29 01:25:08;;;;;;;7.07;2.58;;;;;;;;;;4994195;28;20070;-63
2022/05/29 01:27:43;;;;;;;8.02;3.03;;;;;;;;;;4993819;28;20046;-63
2022/05/29 01:30:23;;;;;;;4.25;2.95;;;;;;;;;;4993854;28;20046;-63
2022/05/29 01:33:04;;;;;;;7.35;2.42;;;;;;;;;;4977076;28;20051;-63
2022/05/29 01:35:36;;;;;;;4.97;2.50;;;;;;;;;;4993605;28;20058;-64
2022/05/29 01:38:30;;;;;;;6.75;3.42;;;;;;;;;;4977137;28;20055;-63
2022/05/29 01:41:23;;;;;;;3.88;2.90;;;;;;;;;;4992202;28;20042;-63
2022/05/29 01:43:55;;;;;;;9.95;3.42;;;;;;;;;;4994810;28;20114;-63
2022/05/29 01:46:29;;;;;;;4.28;2.38;;;;;;;;;;4997049;28;20074;-63
2022/05/29 01:49:23;;;;;;;6.13;2.40;;;;;;;;;;4997333;28;20477;-63
2022/05/29 01:52:04;;;;;;;4.50;2.53;;;;;;;;;;4996766;28;20046;-63
2022/05/29 01:54:38;;;;;;;4.88;2.40;;;;;;;;;;4997640;28;20058;-63
2022/05/29 01:57:10;;;;;;;3.58;2.83;;;;;;;;;;4996831;28;20054;-62
2022/05/29 01:59:42;;;;;;;4.80;2.33;;;;;;;;;;4997169;28;20042;-66
2022/05/29 02:02:17;;;;;;;5.07;2.72;;;;;;;;;;4997002;28;20053;-65
2022/05/29 02:04:49;;;;;;;3.78;2.60;;;;;;;;;;4996049;28;20065;-63
2022/05/29 02:10:17;;;;;;;6.65;3.00;;;;;;;;;;4996880;28;20065;-65
2022/05/29 02:13:21;;;;;;;4.25;2.67;;;;;;;;;;4996697;28;20083;-65
2022/05/29 02:15:51;;;;;;;5.82;3.78;;;;;;;;;;4964896;28;20077;-65
2022/05/29 02:18:39;;;;;;;4.28;2.95;;;;;;;;;;4996568;28;20096;-65
2022/05/29 02:21:14;;;;;;;4.35;2.67;;;;;;;;;;4996977;28;20054;-65
2022/05/29 02:23:51;;;;;;;7.30;2.75;;;;;;;;;;4996720;28;20145;-64
2022/05/29 02:26:24;;;;;;;7.53;2.85;;;;;;;;;;4996710;28;20066;-65
2022/05/29 02:28:58;;;;;;;5.50;2.83;;;;;;;;;;4996483;28;20078;-65
2022/05/29 02:31:41;;;;;;;3.65;2.70;;;;;;;;;;4996526;28;20046;-65
2022/05/29 02:34:46;;;;;;;4.68;2.95;;;;;;;;;;4996856;28;20058;-65
2022/05/29 02:37:37;;;;;;;4.93;2.97;;;;;;;;;;4996129;28;20054;-64
2022/05/29 02:40:09;;;;;;;8.30;2.95;;;;;;;;;;4996531;28;20591;-64
2022/05/29 02:43:21;;;;;;;6.05;3.17;;;;;;;;;;4979227;28;20097;-64
2022/05/29 02:46:09;;;;;;;6.72;3.45;;;;;;;;;;4979361;28;20062;-64
2022/05/29 02:48:52;;;;;;;6.03;3.13;;;;;;;;;;4995973;28;20082;-64
2022/05/29 02:51:43;;;;;;;3.35;3.05;;;;;;;;;;4996404;28;20097;-64
2022/05/29 02:54:19;;;;;;;6.30;4.38;;;;;;;;;;4995407;28;20051;-65
2022/05/29 02:56:49;;;;;;;4.18;3.30;;;;;;;;;;4979258;28;20058;-65
2022/05/29 02:59:22;;;;;;;5.00;3.25;;;;;;;;;;4996128;28;20042;-65
2022/05/29 03:02:02;;;;;;;6.45;3.40;;;;;;;;;;4996087;28;20114;-65
2022/05/29 03:04:57;;;;;;;5.38;2.67;;;;;;;;;;4995449;28;20046;-65
2022/05/29 03:07:32;;;;;;;3.28;2.97;;;;;;;;;;4995917;28;20414;-65
2022/05/29 03:10:10;;;;;;;4.88;2.45;;;;;;;;;;4995669;28;20054;-65
2022/05/29 03:13:03;;;;;;;4.30;3.15;;;;;;;;;;4995804;28;20077;-65
2022/05/29 03:15:55;;;;;;;5.43;3.25;;;;;;;;;;4995524;28;20047;-65
2022/05/29 03:18:50;;;;;;;3.90;2.65;;;;;;;;;;4978804;28;20074;-65
2022/05/29 03:21:24;;;;;;;3.22;2.70;;;;;;;;;;4978352;28;20055;-65
2022/05/29 03:24:17;;;;;;;4.30;2.72;;;;;;;;;;4995477;28;20579;-65
2022/05/29 03:26:56;;;;;;;3.42;3.00;;;;;;;;;;4978479;28;20069;-65
2022/05/29 03:29:40;;;;;;;7.10;3.55;;;;;;;;;;4995346;28;20058;-65
2022/05/29 03:32:10;;;;;;;5.18;3.17;;;;;;;;;;4995415;28;20050;-64
2022/05/29 03:34:40;;;;;;;5.18;3.10;;;;;;;;;;4995765;28;20085;-65
2022/05/29 03:37:10;;;;;;;4.63;2.67;;;;;;;;;;4995326;28;20101;-65
2022/05/29 03:39:39;;;;;;;4.57;2.80;;;;;;;;;;4994987;28;20060;-64
2022/05/29 03:42:09;;;;;;;6.65;3.15;;;;;;;;;;4995319;28;20069;-65
2022/05/29 03:44:39;;;;;;;5.00;3.13;;;;;;;;;;4995055;28;20054;-65
2022/05/29 03:47:11;;;;;;;5.65;2.63;;;;;;;;;;4995365;28;20513;-65
2022/05/29 03:49:41;;;;;;;3.78;2.75;;;;;;;;;;4994849;28;20118;-65
2022/05/29 03:52:11;;;;;;;4.50;3.45;;;;;;;;;;4995321;28;20077;-65
2022/05/29 03:54:42;;;;;;;6.82;2.75;;;;;;;;;;4994721;28;20053;-65
2022/05/29 03:57:12;;;;;;;3.90;2.88;;;;;;;;;;4994898;28;20046;-65
2022/05/29 03:59:43;;;;;;;4.00;2.78;;;;;;;;;;4994877;28;20559;-65
2022/05/29 04:02:13;;;;;;;3.55;2.85;;;;;;;;;;4994890;28;20057;-65
2022/05/29 04:04:43;;;;;;;4.78;3.00;;;;;;;;;;4994943;28;20054;-65
2022/05/29 04:07:13;;;;;;;3.58;2.75;;;;;;;;;;4994514;28;20050;-65
2022/05/29 04:12:32;;;;;;;8.60;3.05;;;;;;;;;;4994836;28;20043;-65
2022/05/29 04:15:01;;;;;;;8.45;3.03;;;;;;;;;;4994678;28;20050;-65
2022/05/29 04:17:30;;;;;;;4.68;2.83;;;;;;;;;;4977036;28;20046;-65
2022/05/29 04:20:01;;;;;;;3.33;3.00;;;;;;;;;;4994684;28;20118;-65
2022/05/29 04:22:29;;;;;;;6.60;3.40;;;;;;;;;;4994500;28;20053;-65
2022/05/29 04:25:00;;;;;;;5.75;2.47;;;;;;;;;;4994392;28;20054;-66
2022/05/29 04:27:30;;;;;;;4.90;3.30;;;;;;;;;;4994558;28;20078;-66
2022/05/29 04:29:59;;;;;;;7.10;4.85;;;;;;;;;;4993997;28;20105;-66
2022/05/29 04:35:18;;;;;;;7.57;2.97;;;;;;;;;;4994094;28;20100;-65
2022/05/29 04:37:48;;;;;;;6.60;3.03;;;;;;;;;;4994459;28;20052;-65
2022/05/29 04:40:18;;;;;;;4.88;3.45;;;;;;;;;;4993868;28;20105;-66
2022/05/29 04:42:48;;;;;;;2.97;2.67;;;;;;;;;;4994443;28;20512;-66
2022/05/29 04:45:19;;;;;;;5.50;3.70;;;;;;;;;;4994325;28;20096;-66
2022/05/29 04:47:48;;;;;;;8.10;3.15;;;;;;;;;;4994197;28;20058;-66
2022/05/29 04:50:19;;;;;;;8.50;3.40;;;;;;;;;;4994323;28;20193;-65
2022/05/29 04:52:52;;;;;;;8.38;3.85;;;;;;;;;;4994197;28;20437;-66
2022/05/29 04:55:21;;;;;;;5.97;3.00;;;;;;;;;;4994426;28;20584;-65
2022/05/29 04:57:51;;;;;;;4.10;3.25;;;;;;;;;;4994223;28;20054;-65
2022/05/29 05:00:21;;;;;;;7.05;2.88;;;;;;;;;;4992765;28;20510;-65
2022/05/29 05:02:51;;;;;;;6.63;3.28;;;;;;;;;;4993164;28;20058;-65
2022/05/29 05:05:21;;;;;;;4.55;3.17;;;;;;;;;;4993509;28;20030;-65
2022/05/29 05:07:51;;;;;;;8.50;2.92;;;;;;;;;;4989066;28;20061;-65
2022/05/29 05:10:22;;;;;;;4.10;3.00;;;;;;;;;;4993831;28;20057;-65
2022/05/29 05:12:53;;;;;;;6.97;3.17;;;;;;;;;;4993586;28;20116;-66
2022/05/29 05:15:23;;;;;;;6.28;3.78;;;;;;;;;;4993025;28;20150;-65
2022/05/29 05:17:53;;;;;;;5.38;3.00;;;;;;;;;;4993283;28;20050;-65
2022/05/29 05:20:23;;;;;;;6.68;3.63;;;;;;;;;;4996733;28;20050;-65
2022/05/29 05:22:53;;;;;;;5.05;3.15;;;;;;;;;;4996345;28;20489;-65
2022/05/29 05:25:23;;;;;;;4.50;3.17;;;;;;;;;;4996077;28;20050;-65
2022/05/29 05:27:53;;;;;;;4.55;3.08;;;;;;;;;;4996563;28;20465;-65
2022/05/29 05:30:24;;;;;;;8.32;3.75;;;;;;;;;;4996517;28;20038;-66
2022/05/29 05:32:54;;;;;;;7.47;3.15;;;;;;;;;;4992991;28;20046;-65
2022/05/29 05:35:24;;;;;;;6.05;2.58;;;;;;;;;;4997018;28;20081;-65
2022/05/29 05:37:54;;;;;;;8.10;3.03;;;;;;;;;;4996939;28;20054;-65
2022/05/29 05:40:24;;;;;;;7.20;3.30;;;;;;;;;;4997452;28;20413;-65
2022/05/29 05:42:55;;;;;;;6.65;3.03;;;;;;;;;;4995988;28;20113;-65
2022/05/29 05:45:26;;;;;;;3.70;3.03;;;;;;;;;;4996999;28;20042;-65
2022/05/29 05:47:56;;;;;;;7.15;3.30;;;;;;;;;;4995709;28;20141;-64
2022/05/29 05:50:25;;;;;;;5.20;2.88;;;;;;;;;;4996501;28;20046;-65
2022/05/29 05:52:55;;;;;;;5.47;3.80;;;;;;;;;;4995669;28;20417;-65
2022/05/29 05:55:25;;;;;;;4.45;3.30;;;;;;;;;;4996041;28;20054;-64
2022/05/29 05:57:55;;;;;;;5.65;2.90;;;;;;;;;;4995764;28;20073;-65
2022/05/29 06:00:24;;;;;;;8.98;3.10;;;;;;;;;;4996147;28;20177;-65
2022/05/29 06:02:54;;;;;;;7.15;3.20;;;;;;;;;;4996183;28;20058;-65
2022/05/29 06:05:23;;;;;;;6.88;3.50;;;;;;;;;;4995711;28;20077;-65
2022/05/29 06:07:54;;;;;;;5.82;3.13;;;;;;;;;;4995478;28;20502;-64
2022/05/29 06:10:24;;;;;;;6.93;4.07;;;;;;;;;;4995597;28;20054;-64
2022/05/29 06:12:53;;;;;;;7.22;4.05;;;;;;;;;;4995543;28;20133;-64
2022/05/29 06:15:24;;;;;;;4.38;3.45;;;;;;;;;;4995313;28;20052;-64
2022/05/29 06:17:55;;;;;;;6.57;4.00;;;;;;;;;;4996004;28;20050;-64
2022/05/29 06:20:25;;;;;;;5.45;3.25;;;;;;;;;;4996364;28;20057;-66
2022/05/29 06:22:55;;;;;;;7.50;4.47;;;;;;;;;;4996434;28;20050;-65
2022/05/29 06:25:26;;;;;;;8.63;3.78;;;;;;;;;;4996839;28;20092;-65
2022/05/29 06:28:01;;;;;;;4.30;3.30;;;;;;;;;;4996267;28;20076;-65
2022/05/29 06:30:32;;;;;;;;;;;;;;;;;;4997205;28;20400;-64
2022/05/29 06:33:02;;;;;;;10.13;3.97;;;;;;;;;;4996413;28;19922;-64
2022/05/29 06:35:32;;;;;;;6.22;3.30;;;;;;;;;;4996673;28;20129;-65
2022/05/29 06:38:03;;;;;;;7.80;4.47;;;;;;;;;;4995975;28;20058;-65
2022/05/29 06:40:34;;;;;;;6.03;3.20;;;;;;;;;;4996571;28;20046;-64
2022/05/29 06:43:04;;;;;;;4.13;3.10;;;;;;;;;;4996240;28;20055;-65
2022/05/29 06:45:34;;;;;;;5.85;3.38;;;;;;;;;;4996235;28;20081;-65
2022/05/29 06:48:05;;;;;;;5.72;3.58;;;;;;;;;;4996675;28;20054;-65
2022/05/29 06:50:33;;;;;;;6.53;4.55;;;;;;;;;;4995471;28;20073;-65
2022/05/29 06:53:03;;;;;;;5.85;3.88;;;;;;;;;;4996130;28;20132;-68
2022/05/29 06:55:32;;;;;;;5.60;4.00;;;;;;;;;;4995908;28;20074;-64
2022/05/29 06:58:02;;;;;;;5.60;4.00;;;;;;;;;;4996404;28;20409;-65
2022/05/29 07:08:58;;;;;;;5.18;4.00;;;;;;;;;;4996189;28;20058;-62
2022/05/29 07:11:34;;;;;;;5.00;4.57;;;;;;;;;;4995547;28;20568;-62
2022/05/29 07:14:05;;;;;;;5.57;5.00;;;;;;;;;;4994927;28;20405;-62
2022/05/29 07:16:37;;;;;;;4.47;4.07;;;;;;;;;;4979163;28;20100;-63
2022/05/29 07:19:07;;;;;;;5.82;3.75;;;;;;;;;;4995439;28;20046;-63
2022/05/29 07:21:40;;;;;;;7.10;5.28;;;;;;;;;;4995066;28;20042;-63
2022/05/29 07:24:15;;;;;;;5.53;4.10;;;;;;;;;;4993929;28;20054;-63
2022/05/29 07:26:53;;;;;;;11.82;5.38;;;;;;;;;;4995182;28;20134;-63
2022/05/29 07:29:32;;;;;;;4.60;3.90;;;;;;;;;;4994293;28;20046;-63
2022/05/29 07:32:08;;;;;;;6.70;4.68;;;;;;;;;;4994783;28;20054;-63
2022/05/29 07:34:45;;;;;;;8.75;4.10;;;;;;;;;;4993607;28;20066;-63
2022/05/29 07:37:26;;;;;;;6.55;4.72;;;;;;;;;;4994542;28;20121;-64
2022/05/29 07:40:02;;;;;;;5.32;3.78;;;;;;;;;;4994279;28;20129;-63
2022/05/29 07:45:32;;;;;;;10.50;4.65;;;;;;;;;;4993638;28;20089;-62
2022/05/29 07:48:09;;;;;;;4.85;4.15;;;;;;;;;;4994592;28;20592;-62
2022/05/29 07:50:46;;;;;;;4.93;4.03;;;;;;;;;;4976195;28;20097;-62
2022/05/29 07:53:27;;;;;;;5.78;3.92;;;;;;;;;;4992459;28;20045;-63
2022/05/29 07:56:02;;;;;;;4.32;3.92;;;;;;;;;;4992072;28;20058;-61
2022/05/29 07:58:33;;;;;;;9.25;4.57;;;;;;;;;;4990556;28;20059;-62
2022/05/29 08:01:13;;;;;;;8.15;4.78;;;;;;;;;;4991884;28;20054;-61
2022/05/29 08:03:52;;;;;;;6.25;4.40;;;;;;;;;;4991593;28;20038;-61
2022/05/29 08:06:34;;;;;;;4.78;4.25;;;;;;;;;;4974848;28;20046;-63
2022/05/29 08:09:10;;;;;;;5.80;4.25;;;;;;;;;;4992918;28;20521;-61
2022/05/29 08:11:43;;;;;;;5.72;4.63;;;;;;;;;;4993400;28;20468;-60
2022/05/29 08:14:27;;;;;;;11.02;4.95;;;;;;;;;;4991300;28;20046;-60
2022/05/29 08:17:09;;;;;;;11.85;4.75;;;;;;;;;;4992760;28;20093;-62
2022/05/29 08:19:43;;;;;;;5.47;4.97;;;;;;;;;;4992823;28;20097;-60
2022/05/29 08:22:19;;;;;;;5.43;4.68;;;;;;;;;;4993397;28;20034;-62
2022/05/29 08:30:53;;;;;;;6.22;4.88;;;;;;;;;;4971537;28;20043;-63
2022/05/29 08:33:47;;;;;;;12.40;5.32;;;;;;;;;;4972587;28;20046;-63
2022/05/29 08:36:26;;;;;;;7.55;4.70;;;;;;;;;;4973384;28;20043;-63
2022/05/29 08:39:01;;;;;;;8.35;5.00;;;;;;;;;;4987370;28;20210;-63
2022/05/29 08:41:40;;;;;;;7.97;5.03;;;;;;;;;;4972563;28;20174;-63
2022/05/29 08:44:17;;;;;;;8.00;4.70;;;;;;;;;;4970664;28;20050;-65
2022/05/29 08:46:53;;;;;;;8.00;5.25;;;;;;;;;;4971147;28;20130;-63
2022/05/29 08:49:26;;;;;;;6.97;4.88;;;;;;;;;;4988056;28;20074;-65
2022/05/29 08:52:19;;;;;;;7.13;4.88;;;;;;;;;;4970139;28;20474;-63
2022/05/29 08:55:13;;;;;;;9.77;5.53;;;;;;;;;;4970165;28;20517;-63
2022/05/29 08:58:02;;;;;;;6.43;4.55;;;;;;;;;;4971967;28;20122;-64
2022/05/29 09:00:46;;;;;;;5.00;4.60;;;;;;;;;;4973863;28;20050;-72
2022/05/29 09:03:39;;;;;;;5.32;4.80;;;;;;;;;;4987640;28;20710;-69
2022/05/29 09:06:25;;;;;;;6.47;4.82;;;;;;;;;;4972890;28;21304;-72
2022/05/29 09:09:12;;;;;;;7.47;4.60;;;;;;;;;;4971947;28;20097;-72
2022/05/29 09:12:03;;;;;;;11.30;5.30;;;;;;;;;;4973273;28;20074;-71
2022/05/29 09:14:39;;;;;;;6.47;4.13;;;;;;;;;;4972063;28;20055;-71
2022/05/29 09:17:31;;;;;;;6.15;3.22;;;;;;;;;;4973090;28;20050;-70
2022/05/29 09:20:28;;;;;;;8.05;3.80;;;;;;;;;;4973707;28;20122;-71
2022/05/29 09:22:58;;;;;;;6.35;4.25;;;;;;;;;;4974151;28;20039;-71
2022/05/29 09:25:38;;;;;;;5.43;4.32;;;;;;;;;;4991828;28;20056;-76
2022/05/29 09:28:13;;;;;;;4.88;4.43;;;;;;;;;;4993127;28;20103;-75
2022/05/29 09:30:43;;;;;;;4.85;4.22;;;;;;;;;;4990968;28;20132;-69
2022/05/29 09:33:26;;;;;;;5.57;4.60;;;;;;;;;;4990805;28;20057;-73
2022/05/29 09:36:24;;;;;;;6.38;4.22;;;;;;;;;;4991047;28;20080;-72
2022/05/29 09:39:02;;;;;;;3.90;3.35;;;;;;;;;;4944877;28;20120;-72
2022/05/29 09:42:03;;;;;;;8.02;4.40;;;;;;;;;;4977129;28;20046;-64
2022/05/29 09:44:33;;;;;;;9.43;4.18;;;;;;;;;;4992358;28;20061;-64
2022/05/29 09:50:09;;;;;;;8.85;4.30;;;;;;;;;;4992622;28;20065;-64
2022/05/29 09:52:43;;;;;;;6.90;3.72;;;;;;;;;;4992815;28;20050;-63
2022/05/29 09:55:26;;;;;;;76.75;64.82;;;;;;;;;;4992086;28;20046;-67
2022/05/29 09:58:02;;;;;;;12.30;10.98;;;;;;;;;;4992637;28;20485;-67
2022/05/29 10:00:57;;;;;;;6.85;6.03;;;;;;;;;;4992638;28;20066;-68
2022/05/29 10:03:51;;;;;;;6.47;4.65;;;;;;;;;;4991504;28;20050;-68
2022/05/29 10:06:44;;;;;;;5.30;3.97;;;;;;;;;;4995691;28;20053;-68
2022/05/29 10:09:21;;;;;;;5.22;3.90;;;;;;;;;;4996554;28;20058;-67
2022/05/29 10:12:15;;;;;;;4.13;3.58;;;;;;;;;;4996084;28;20092;-68
2022/05/29 10:14:45;;;;;;;7.05;4.03;;;;;;;;;;4989947;28;20050;-67
2022/05/29 10:17:40;;;;;;;8.13;4.80;;;;;;;;;;4995838;28;20125;-67
2022/05/29 10:20:37;;;;;;;55.72;48.03;;;;;;;;;;4994241;28;20050;-67
2022/05/29 10:23:34;;;;;;;8.13;5.18;;;;;;;;;;4978560;28;20089;-68
2022/05/29 10:26:31;;;;;;;5.53;5.03;;;;;;;;;;4992938;28;20468;-67
2022/05/29 10:29:03;;;;;;;10.43;5.35;;;;;;;;;;4995088;28;20082;-67
2022/05/29 10:31:40;;;;;;;8.52;4.30;;;;;;;;;;4979054;28;20054;-67
2022/05/29 10:34:12;;;;;;;12.13;7.85;;;;;;;;;;4993808;28;20096;-68
2022/05/29 10:36:48;;;;;;;4.90;4.03;;;;;;;;;;4994837;28;20133;-67
2022/05/29 10:39:29;;;;;;;5.90;4.40;;;;;;;;;;4993889;28;20129;-66
2022/05/29 10:42:05;;;;;;;5.90;3.80;;;;;;;;;;4994104;28;20065;-66
2022/05/29 10:44:46;;;;;;;8.38;4.38;;;;;;;;;;4993686;28;20053;-66
2022/05/29 10:47:27;;;;;;;5.72;4.13;;;;;;;;;;4993764;28;20100;-66
2022/05/29 10:50:02;;;;;;;6.45;5.10;;;;;;;;;;4994064;28;20101;-68
2022/05/29 10:52:59;;;;;;;5.72;4.75;;;;;;;;;;4994768;28;20088;-68
2022/05/29 10:55:51;;;;;;;6.05;4.13;;;;;;;;;;4993265;28;20455;-68
2022/05/29 10:58:56;;;;;;;5.60;4.43;;;;;;;;;;4993350;28;20069;-69
2022/05/29 11:04:40;;;;;;;;;;;;;;;;;;4995335;28;20046;-66
2022/05/29 11:07:19;;;;;;;10.32;5.15;;;;;;;;;;4993486;28;20084;-67
2022/05/29 11:10:12;;;;;;;7.70;4.85;;;;;;;;;;4992981;28;20494;-66
2022/05/29 11:13:07;;;;;;;11.52;5.32;;;;;;;;;;4979047;28;20046;-66
2022/05/29 11:15:36;;;;;;;51.50;45.85;;;;;;;;;;4993685;28;20130;-66
2022/05/29 11:18:27;;;;;;;11.55;7.22;;;;;;;;;;4993499;28;20413;-67
2022/05/29 11:21:07;;;;;;;6.95;4.80;;;;;;;;;;4993815;28;20555;-66
2022/05/29 11:23:54;;;;;;;9.18;4.65;;;;;;;;;;4924111;28;2034800;-67
2022/05/29 11:26:53;;;;;;;5.43;4.65;;;;;;;;;;4994843;28;20489;-67
2022/05/29 11:29:28;;;;;;;9.38;4.38;;;;;;;;;;4994358;28;20374;-67
2022/05/29 11:32:32;;;;;;;10.02;4.82;;;;;;;;;;4995077;28;20413;-67
2022/05/29 11:35:17;;;;;;;10.57;5.43;;;;;;;;;;4994256;28;20058;-67
2022/05/29 11:38:01;;;;;;;6.00;4.55;;;;;;;;;;4994171;28;20078;-67
2022/05/29 11:40:56;;;;;;;9.25;5.80;;;;;;;;;;4994834;28;20464;-67
2022/05/29 11:43:54;;;;;;;7.40;5.60;;;;;;;;;;4962360;28;20050;-69
2022/05/29 11:52:28;;;;;;;7.45;5.47;;;;;;;;;;4993594;28;20050;-68
2022/05/29 11:55:18;;;;;;;8.98;5.95;;;;;;;;;;4993488;28;20053;-68
2022/05/29 11:57:58;;;;;;;12.13;6.28;;;;;;;;;;4975512;28;20046;-67
2022/05/29 12:00:32;;;;;;;10.35;6.05;;;;;;;;;;4994230;28;20461;-68
2022/05/29 12:03:31;;;;;;;6.82;6.13;;;;;;;;;;4994312;28;20072;-66
2022/05/29 12:06:06;;;;;;;8.93;6.18;;;;;;;;;;4992683;28;20078;-69
2022/05/29 12:08:53;;;;;;;5.75;5.22;;;;;;;;;;4976240;28;20042;-68
2022/05/29 12:11:34;;;;;;;6.47;5.90;;;;;;;;;;4994262;28;20057;-67
2022/05/29 12:14:33;;;;;;;8.15;5.57;;;;;;;;;;4976482;28;20567;-67
2022/05/29 12:17:14;;;;;;;8.65;6.07;;;;;;;;;;4991704;28;20058;-67
2022/05/29 12:19:45;;;;;;;6.43;5.70;;;;;;;;;;4976905;28;20050;-67
2022/05/29 12:22:19;;;;;;;9.18;5.85;;;;;;;;;;4990649;28;20080;-67
2022/05/29 12:24:50;;;;;;;10.15;5.40;;;;;;;;;;4991850;28;20055;-68
2022/05/29 12:27:21;;;;;;;5.80;5.18;;;;;;;;;;4991604;28;20202;-68
2022/05/29 12:30:19;;;;;;;9.65;5.50;;;;;;;;;;4991754;28;20043;-70
2022/05/29 12:32:48;;;;;;;12.38;6.13;;;;;;;;;;4971707;28;20457;-70
2022/05/29 12:35:35;;;;;;;9.23;5.15;;;;;;;;;;4990605;28;20053;-70
2022/05/29 12:38:16;;;;;;;9.25;5.28;;;;;;;;;;4974718;28;20054;-71
2022/05/29 12:40:51;;;;;;;9.25;4.95;;;;;;;;;;4992514;28;20039;-68
2022/05/29 12:43:37;;;;;;;10.88;6.05;;;;;;;;;;4991798;28;20058;-70
2022/05/29 12:46:15;;;;;;;8.65;5.43;;;;;;;;;;4992211;28;20565;-69
2022/05/29 12:48:55;;;;;;;7.63;6.00;;;;;;;;;;4992870;28;20048;-69
2022/05/29 12:52:00;;;;;;;8.93;5.32;;;;;;;;;;4992970;28;20042;-70
2022/05/29 12:54:31;;;;;;;;;;;;;;;;;;4990787;28;20517;-69
2022/05/29 12:57:17;;;;;;;8.27;5.55;;;;;;;;;;4991078;28;19970;-69
2022/05/29 13:00:24;;;;;;;8.65;4.70;;;;;;;;;;4990299;28;20046;-70
2022/05/29 13:03:11;;;;;;;7.40;4.35;;;;;;;;;;4991474;28;20074;-70
2022/05/29 13:06:10;;;;;;;5.75;3.60;;;;;;;;;;4992454;28;20508;-69
2022/05/29 13:08:52;;;;;;;5.88;3.75;;;;;;;;;;4993177;28;20050;-69
2022/05/29 13:11:40;;;;;;;6.80;3.47;;;;;;;;;;4992690;28;20505;-70
2022/05/29 13:14:16;;;;;;;5.47;3.13;;;;;;;;;;4976277;28;20073;-70
2022/05/29 13:16:46;;;;;;;4.10;3.00;;;;;;;;;;4990762;28;20066;-70
2022/05/29 13:19:18;;;;;;;4.13;3.03;;;;;;;;;;4991211;28;20474;-69
2022/05/29 13:22:02;;;;;;;6.50;2.47;;;;;;;;;;4992380;28;20130;-68
2022/05/29 13:24:36;;;;;;;6.38;3.38;;;;;;;;;;4989513;28;20065;-64
2022/05/29 13:27:09;;;;;;;7.07;3.40;;;;;;;;;;4988953;28;20061;-59
2022/05/29 13:29:46;;;;;;;6.00;3.45;;;;;;;;;;4989843;28;20051;-61
2022/05/29 13:32:15;;;;;;;3.67;3.33;;;;;;;;;;4990661;28;20038;-62
2022/05/29 13:34:52;;;;;;;4.47;2.90;;;;;;;;;;4991294;28;20046;-61
2022/05/29 13:37:45;;;;;;;7.10;2.40;;;;;;;;;;4988377;28;20054;-61
2022/05/29 13:40:29;;;;;;;4.10;2.83;;;;;;;;;;4994002;28;20108;-61
2022/05/29 13:43:35;;;;;;;9.52;3.70;;;;;;;;;;4995050;28;20054;-62
2022/05/29 13:46:27;;;;;;;5.07;2.72;;;;;;;;;;4977706;28;20093;-63
2022/05/29 13:49:20;;;;;;;6.72;3.03;;;;;;;;;;4969165;28;20058;-63
2022/05/29 13:52:10;;;;;;;6.80;3.13;;;;;;;;;;4990457;28;20133;-64
2022/05/29 13:55:22;;;;;;;7.97;3.30;;;;;;;;;;4991207;28;20096;-64
2022/05/29 14:04:06;;;;;;;7.38;3.42;;;;;;;;;;4991536;28;20046;-64
2022/05/29 14:07:13;;;;;;;4.38;3.03;;;;;;;;;;4986463;28;20445;-63
2022/05/29 14:09:43;;;;;;;6.75;2.72;;;;;;;;;;4991156;28;20062;-63
2022/05/29 14:12:34;;;;;;;7.22;2.75;;;;;;;;;;4991395;28;20042;-62
2022/05/29 14:15:33;;;;;;;11.48;4.90;;;;;;;;;;4980860;28;20077;-63
2022/05/29 14:18:13;;;;;;;5.03;3.15;;;;;;;;;;4987409;28;20112;-63
2022/05/29 14:20:59;;;;;;;7.88;2.67;;;;;;;;;;4975139;28;20145;-63
2022/05/29 14:23:47;;;;;;;9.02;2.60;;;;;;;;;;4978288;28;20058;-64
2022/05/29 14:26:56;;;;;;;6.82;2.95;;;;;;;;;;4989938;28;20062;-64
2022/05/29 14:29:43;;;;;;;8.02;3.20;;;;;;;;;;4993982;28;20117;-68
2022/05/29 14:32:21;;;;;;;6.13;2.53;;;;;;;;;;4991315;28;20050;-64
2022/05/29 14:35:12;;;;;;;10.07;5.20;;;;;;;;;;4991663;28;20108;-64
2022/05/29 14:37:44;;;;;;;8.50;3.00;;;;;;;;;;4992860;28;20057;-63
2022/05/29 14:40:47;;;;;;;5.40;3.20;;;;;;;;;;4992509;28;20579;-64
2022/05/29 14:43:33;;;;;;;6.80;3.30;;;;;;;;;;4991663;28;20047;-64
2022/05/29 14:46:16;;;;;;;4.50;3.30;;;;;;;;;;4993559;28;20061;-63
2022/05/29 14:49:13;;;;;;;4.72;2.60;;;;;;;;;;4992133;28;20073;-63
2022/05/29 14:51:46;;;;;;;5.15;2.60;;;;;;;;;;4974011;28;20085;-62
2022/05/29 14:54:45;;;;;;;;;;;;;;;;;;4987762;28;20503;-63
2022/05/29 14:57:29;;;;;;;2.90;2.40;;;;;;;;;;4972883;28;19922;-64
2022/05/29 15:00:18;;;;;;;3.95;2.40;;;;;;;;;;4974278;28;20108;-64
2022/05/29 15:02:49;;;;;;;9.38;2.60;;;;;;;;;;4991475;28;20053;-64
2022/05/29 15:05:19;;;;;;;5.30;2.83;;;;;;;;;;4991741;28;20046;-63
2022/05/29 15:10:54;;;;;;;4.78;2.45;;;;;;;;;;4992242;28;20049;-62
2022/05/29 15:13:58;;;;;;;7.00;2.67;;;;;;;;;;4975292;28;20046;-62
2022/05/29 15:16:40;;;;;;;2.75;1.90;;;;;;;;;;4987660;28;20061;-63
2022/05/29 15:25:23;;;;;;;3.40;2.00;;;;;;;;;;4990171;28;20050;-63
2022/05/29 15:28:05;;;;;;;5.63;2.22;;;;;;;;;;4992823;28;20043;-63
2022/05/29 15:30:41;;;;;;;3.50;1.80;;;;;;;;;;4977962;28;20489;-62
2022/05/29 15:33:11;;;;;;;4.95;2.08;;;;;;;;;;4989993;28;20048;-62
2022/05/29 15:36:21;;;;;;;2.60;1.80;;;;;;;;;;4992167;28;20046;-63
2022/05/29 15:39:13;;;;;;;3.75;1.92;;;;;;;;;;4897711;29;20144;-63
2022/05/29 15:41:58;;;;;;;4.43;1.83;;;;;;;;;;4978262;28;20042;-64
2022/05/29 15:45:04;;;;;;;9.82;2.78;;;;;;;;;;4993555;28;20077;-63
2022/05/29 15:47:50;;;;;;;4.28;1.73;;;;;;;;;;4991952;28;20042;-63
2022/05/29 15:50:26;;;;;;;6.38;2.30;;;;;;;;;;4992988;28;20142;-64
2022/05/29 15:53:18;;;;;;;5.63;2.05;;;;;;;;;;4978042;28;20077;-64
2022/05/29 15:55:59;;;;;;;2.33;1.65;;;;;;;;;;4994073;28;20417;-64
2022/05/29 15:58:45;;;;;;;6.65;1.92;;;;;;;;;;4991557;28;20507;-63
2022/05/29 16:01:18;;;;;;;4.28;1.70;;;;;;;;;;4991748;28;20080;-63
2022/05/29 16:03:48;;;;;;;4.43;2.20;;;;;;;;;;4992585;28;20447;-63
2022/05/29 16:06:41;;;;;;;3.38;1.80;;;;;;;;;;4988980;28;20046;-63
2022/05/29 16:09:14;;;;;;;3.83;1.85;;;;;;;;;;4992016;28;20072;-63
2022/05/29 16:11:58;;;;;;;3.10;1.90;;;;;;;;;;4992254;28;20056;-63
2022/05/29 16:14:33;;;;;;;;;;;;;;;;;;4991423;28;20421;-64
2022/05/29 16:17:07;;;;;;;5.07;1.90;;;;;;;;;;4993577;28;20302;-63
2022/05/29 16:19:46;;;;;;;3.20;1.70;;;;;;;;;;4990495;28;20405;-64
2022/05/29 16:22:36;;;;;;;4.03;1.48;;;;;;;;;;4991032;28;20394;-63
2022/05/29 16:25:08;;;;;;;3.00;1.85;;;;;;;;;;4988557;28;20528;-63
2022/05/29 16:27:55;;;;;;;2.75;2.03;;;;;;;;;;4989224;28;20137;-63
2022/05/29 16:30:39;;;;;;;5.80;2.20;;;;;;;;;;4987506;28;20065;-62
2022/05/29 16:33:14;;;;;;;3.15;2.22;;;;;;;;;;4974716;28;20052;-63
2022/05/29 16:35:44;;;;;;;5.57;1.75;;;;;;;;;;4972012;28;20050;-62
2022/05/29 16:50:23;;;;;;;5.60;2.88;;;;;;;;;;4989840;28;20070;-63
2022/05/29 16:53:07;;;;;;;5.10;3.28;;;;;;;;;;4991978;28;20046;-63
2022/05/29 16:55:42;;;;;;;3.60;2.70;;;;;;;;;;4990995;28;20409;-62
2022/05/29 16:58:20;;;;;;;4.10;3.00;;;;;;;;;;4992085;28;20054;-63
2022/05/29 17:01:19;;;;;;;3.97;3.47;;;;;;;;;;4989411;28;20077;-63